sensor_id;sensor_type;location;lat;lon;timestamp;temperature;humidity
20315;DHT22;10315;50.958;13.080;2023-11-21T00:04:01;7.20;99.90
20315;DHT22;10315;50.958;13.080;2023-11-21T00:14:03;7.20;99.90
20315;DHT22;10315;50.958;13.080;2023-11-21T00:24:07;7.10;99.90
20315;DHT22;10315;50.958;13.080;2023-11-21T00:34:10;7.10;99.90
20315;DHT22;10315;50.958;13.080;2023-11-21T00:44:13;7.00;99.90
20315;DHT22;10315;50.958;13.080;2023-11-21T00:54:16;7.00;99.90
20315;DHT22;10315;50.958;13.080;2023-11-21T01:04:19;6.90;99.90
20315;DHT22;10315;50.958;13.080;2023-11-21T01:14:21;6.80;99.90
20315;DHT22;10315;50.958;13.080;2023-11-21T01:24:24;6.60;99.90
20315;DHT22;10315;50.958;13.080;2023-11-21T01:34:26;6.60;99.90
20315;DHT22;10315;50.958;13.080;2023-11-21T01:44:29;6.30;99.90
20315;DHT22;10315;50.958;13.080;2023-11-21T01:54:31;5.90;99.90
20315;DHT22;10315;50.958;13.080;2023-11-21T02:04:34;6.10;99.90
20315;DHT22;10315;50.958;13.080;2023-11-21T02:14:37;6.10;99.90
20315;DHT22;10315;50.958;13.080;2023-11-21T02:24:41;6.20;99.90
20315;DHT22;10315;50.958;13.080;2023-11-21T02:34:43;6.10;99.90
20315;DHT22;10315;50.958;13.080;2023-11-21T02:44:46;6.10;99.90
20315;DHT22;10315;50.958;13.080;2023-11-21T02:54:48;6.00;99.90
20315;DHT22;10315;50.958;13.080;2023-11-21T03:04:51;6.20;99.90
20315;DHT22;10315;50.958;13.080;2023-11-21T03:14:53;6.20;99.90
20315;DHT22;10315;50.958;13.080;2023-11-21T03:24:56;6.20;99.90
20315;DHT22;10315;50.958;13.080;2023-11-21T03:34:58;6.20;99.90
20315;DHT22;10315;50.958;13.080;2023-11-21T03:45:04;6.20;99.90
20315;DHT22;10315;50.958;13.080;2023-11-21T03:55:07;6.20;99.90
20315;DHT22;10315;50.958;13.080;2023-11-21T04:05:10;6.30;99.90
20315;DHT22;10315;50.958;13.080;2023-11-21T04:15:12;6.50;99.90
20315;DHT22;10315;50.958;13.080;2023-11-21T04:25:16;6.60;99.90
20315;DHT22;10315;50.958;13.080;2023-11-21T04:35:17;6.60;99.90
20315;DHT22;10315;50.958;13.080;2023-11-21T04:45:21;6.60;99.90
20315;DHT22;10315;50.958;13.080;2023-11-21T04:55:23;6.30;99.90
20315;DHT22;10315;50.958;13.080;2023-11-21T05:05:26;6.00;99.90
20315;DHT22;10315;50.958;13.080;2023-11-21T05:15:27;6.00;99.90
20315;DHT22;10315;50.958;13.080;2023-11-21T05:25:31;5.90;99.90
20315;DHT22;10315;50.958;13.080;2023-11-21T05:35:32;6.00;99.90
20315;DHT22;10315;50.958;13.080;2023-11-21T05:45:35;5.80;99.90
20315;DHT22;10315;50.958;13.080;2023-11-21T05:55:37;5.10;99.90
20315;DHT22;10315;50.958;13.080;2023-11-21T06:05:41;5.00;99.90
20315;DHT22;10315;50.958;13.080;2023-11-21T06:15:42;5.20;99.90
20315;DHT22;10315;50.958;13.080;2023-11-21T06:25:45;5.60;99.90
20315;DHT22;10315;50.958;13.080;2023-11-21T06:35:47;5.90;99.90
20315;DHT22;10315;50.958;13.080;2023-11-21T06:45:50;5.90;99.90
20315;DHT22;10315;50.958;13.080;2023-11-21T06:55:52;6.20;99.90
20315;DHT22;10315;50.958;13.080;2023-11-21T07:05:55;6.20;99.90
20315;DHT22;10315;50.958;13.080;2023-11-21T07:15:57;6.40;99.90
20315;DHT22;10315;50.958;13.080;2023-11-21T07:26:00;6.40;99.90
20315;DHT22;10315;50.958;13.080;2023-11-21T07:36:02;6.50;99.90
20315;DHT22;10315;50.958;13.080;2023-11-21T07:46:05;6.60;99.90
20315;DHT22;10315;50.958;13.080;2023-11-21T07:56:09;6.50;99.90
20315;DHT22;10315;50.958;13.080;2023-11-21T08:06:12;6.50;99.90
20315;DHT22;10315;50.958;13.080;2023-11-21T08:16:15;6.60;99.90
20315;DHT22;10315;50.958;13.080;2023-11-21T08:26:18;6.70;99.90
20315;DHT22;10315;50.958;13.080;2023-11-21T08:36:20;6.70;99.90
20315;DHT22;10315;50.958;13.080;2023-11-21T08:46:24;6.90;99.90
20315;DHT22;10315;50.958;13.080;2023-11-21T08:56:27;7.00;99.90
20315;DHT22;10315;50.958;13.080;2023-11-21T09:06:30;7.20;99.90
20315;DHT22;10315;50.958;13.080;2023-11-21T09:16:31;7.30;99.90
20315;DHT22;10315;50.958;13.080;2023-11-21T09:26:35;7.30;99.90
20315;DHT22;10315;50.958;13.080;2023-11-21T09:36:36;7.40;99.90
20315;DHT22;10315;50.958;13.080;2023-11-21T09:46:42;7.30;99.90
20315;DHT22;10315;50.958;13.080;2023-11-21T09:56:44;7.50;99.90
20315;DHT22;10315;50.958;13.080;2023-11-21T10:06:47;7.50;99.90
20315;DHT22;10315;50.958;13.080;2023-11-21T10:16:50;7.30;99.90
20315;DHT22;10315;50.958;13.080;2023-11-21T10:26:53;6.20;99.90
20315;DHT22;10315;50.958;13.080;2023-11-21T10:36:55;5.90;99.90
20315;DHT22;10315;50.958;13.080;2023-11-21T10:47:00;5.50;99.90
20315;DHT22;10315;50.958;13.080;2023-11-21T10:57:04;5.40;99.90
20315;DHT22;10315;50.958;13.080;2023-11-21T11:07:08;5.50;99.90
20315;DHT22;10315;50.958;13.080;2023-11-21T11:17:14;5.50;99.90
20315;DHT22;10315;50.958;13.080;2023-11-21T11:27:25;5.40;99.90
20315;DHT22;10315;50.958;13.080;2023-11-21T11:37:30;5.30;99.90
20315;DHT22;10315;50.958;13.080;2023-11-21T11:47:35;5.40;99.90
20315;DHT22;10315;50.958;13.080;2023-11-21T11:57:39;5.30;99.90
20315;DHT22;10315;50.958;13.080;2023-11-21T12:07:47;5.40;99.90
20315;DHT22;10315;50.958;13.080;2023-11-21T12:17:49;5.30;99.90
20315;DHT22;10315;50.958;13.080;2023-11-21T12:27:52;5.40;99.90
20315;DHT22;10315;50.958;13.080;2023-11-21T12:37:55;5.40;99.90
20315;DHT22;10315;50.958;13.080;2023-11-21T12:48:00;5.40;99.90
20315;DHT22;10315;50.958;13.080;2023-11-21T12:58:05;5.30;99.90
20315;DHT22;10315;50.958;13.080;2023-11-21T13:08:12;5.40;99.90
20315;DHT22;10315;50.958;13.080;2023-11-21T13:18:13;5.30;99.90
20315;DHT22;10315;50.958;13.080;2023-11-21T13:28:17;5.30;99.90
20315;DHT22;10315;50.958;13.080;2023-11-21T13:38:21;4.90;99.90
20315;DHT22;10315;50.958;13.080;2023-11-21T13:48:25;4.70;99.90
20315;DHT22;10315;50.958;13.080;2023-11-21T13:58:32;4.50;99.90
20315;DHT22;10315;50.958;13.080;2023-11-21T14:08:46;4.40;99.90
20315;DHT22;10315;50.958;13.080;2023-11-21T14:18:48;4.10;99.90
20315;DHT22;10315;50.958;13.080;2023-11-21T14:28:57;4.00;99.90
20315;DHT22;10315;50.958;13.080;2023-11-21T14:39:00;3.90;99.90
20315;DHT22;10315;50.958;13.080;2023-11-21T14:49:03;3.80;99.90
20315;DHT22;10315;50.958;13.080;2023-11-21T14:59:19;3.60;99.90
20315;DHT22;10315;50.958;13.080;2023-11-21T15:09:22;3.60;99.90
20315;DHT22;10315;50.958;13.080;2023-11-21T15:19:39;3.40;99.90
20315;DHT22;10315;50.958;13.080;2023-11-21T15:29:44;3.40;99.90
20315;DHT22;10315;50.958;13.080;2023-11-21T15:39:45;3.40;99.90
20315;DHT22;10315;50.958;13.080;2023-11-21T15:49:48;3.30;99.90
20315;DHT22;10315;50.958;13.080;2023-11-21T15:59:50;3.10;99.90
20315;DHT22;10315;50.958;13.080;2023-11-21T16:09:53;3.00;99.90
20315;DHT22;10315;50.958;13.080;2023-11-21T16:19:55;2.90;99.90
20315;DHT22;10315;50.958;13.080;2023-11-21T16:29:58;2.90;99.90
20315;DHT22;10315;50.958;13.080;2023-11-21T16:40:00;2.70;99.90
20315;DHT22;10315;50.958;13.080;2023-11-21T16:50:03;2.60;99.90
20315;DHT22;10315;50.958;13.080;2023-11-21T17:00:06;2.60;99.90
20315;DHT22;10315;50.958;13.080;2023-11-21T17:10:14;2.70;99.90
20315;DHT22;10315;50.958;13.080;2023-11-21T17:20:16;2.60;99.90
20315;DHT22;10315;50.958;13.080;2023-11-21T17:30:20;2.60;99.90
20315;DHT22;10315;50.958;13.080;2023-11-21T17:40:22;2.50;99.90
20315;DHT22;10315;50.958;13.080;2023-11-21T17:50:28;2.40;99.90
20315;DHT22;10315;50.958;13.080;2023-11-21T18:00:30;2.40;99.90
20315;DHT22;10315;50.958;13.080;2023-11-21T18:10:33;2.30;99.90
20315;DHT22;10315;50.958;13.080;2023-11-21T18:20:35;2.20;99.90
20315;DHT22;10315;50.958;13.080;2023-11-21T18:30:38;2.30;99.90
20315;DHT22;10315;50.958;13.080;2023-11-21T18:40:40;2.20;99.90
20315;DHT22;10315;50.958;13.080;2023-11-21T18:50:42;2.20;99.90
20315;DHT22;10315;50.958;13.080;2023-11-21T19:00:44;2.10;99.90
20315;DHT22;10315;50.958;13.080;2023-11-21T19:10:47;2.10;99.90
20315;DHT22;10315;50.958;13.080;2023-11-21T19:20:49;2.20;99.90
20315;DHT22;10315;50.958;13.080;2023-11-21T19:30:52;2.20;99.90
20315;DHT22;10315;50.958;13.080;2023-11-21T19:40:55;2.20;99.90
20315;DHT22;10315;50.958;13.080;2023-11-21T19:50:58;2.10;99.90
20315;DHT22;10315;50.958;13.080;2023-11-21T20:00:59;2.10;99.90
20315;DHT22;10315;50.958;13.080;2023-11-21T20:11:03;1.90;99.90
20315;DHT22;10315;50.958;13.080;2023-11-21T20:21:04;1.60;99.90
20315;DHT22;10315;50.958;13.080;2023-11-21T20:31:10;1.50;99.90
20315;DHT22;10315;50.958;13.080;2023-11-21T20:41:11;1.60;99.90
20315;DHT22;10315;50.958;13.080;2023-11-21T20:51:15;1.60;99.90
20315;DHT22;10315;50.958;13.080;2023-11-21T21:01:17;1.40;99.90
20315;DHT22;10315;50.958;13.080;2023-11-21T21:11:20;1.20;99.90
20315;DHT22;10315;50.958;13.080;2023-11-21T21:21:22;1.20;99.90
20315;DHT22;10315;50.958;13.080;2023-11-21T21:31:25;1.10;99.90
20315;DHT22;10315;50.958;13.080;2023-11-21T21:41:27;1.00;99.90
20315;DHT22;10315;50.958;13.080;2023-11-21T21:51:34;0.90;99.90
20315;DHT22;10315;50.958;13.080;2023-11-21T22:01:42;0.90;99.90
20315;DHT22;10315;50.958;13.080;2023-11-21T22:11:45;0.90;99.90
20315;DHT22;10315;50.958;13.080;2023-11-21T22:21:47;0.80;99.90
20315;DHT22;10315;50.958;13.080;2023-11-21T22:31:50;0.80;99.90
20315;DHT22;10315;50.958;13.080;2023-11-21T22:41:52;0.70;99.90
20315;DHT22;10315;50.958;13.080;2023-11-21T22:51:57;0.70;99.90
20315;DHT22;10315;50.958;13.080;2023-11-21T23:01:58;0.70;99.90
20315;DHT22;10315;50.958;13.080;2023-11-21T23:12:02;0.60;99.90
20315;DHT22;10315;50.958;13.080;2023-11-21T23:22:03;0.40;99.90
20315;DHT22;10315;50.958;13.080;2023-11-21T23:32:06;0.50;99.90
20315;DHT22;10315;50.958;13.080;2023-11-21T23:42:08;0.40;99.90
20315;DHT22;10315;50.958;13.080;2023-11-21T23:52:11;0.30;99.90
